Aérodrome :
LOGIN :

S'inscrire | Disclaimer

   EN    FR    IT 

 










Légende :    VFR   VFR Marginal   IFR   IFR Intensif   IFR Très Intensif
Visi : 
Plafond : 
>= 8 km
>= 3000ft
5 à 8 km
1000 à 3000 ft
1500m à 5 km
500 à 1000 ft
800 à 1500m
200 à 500 ft
< 800m
< 200 ft
Symboles :   Orages  Brouillard  Fortes neiges  Fortes précipitations  Vent > 20 kt
SIGMETs :   Divers  Orages  Givrage  Turbulence  Onde Orograph.  Cendres Volcan.







- Altitude de l'aérodrome : 117 ft
- Code IATA : NWI
- Voir les cartes d'approche


EGSH - Norwich

DERNIER METAR :
  • 222150Z 10004KT 8000 -RA FEW022 BKN033 07/06 Q1012 TEMPO RA

METARs EXPIRÉS :
  • 222120Z 10005KT 8000 -RA BKN031 07/06 Q1012 RERA TEMPO RA
  • 222050Z 10007KT 9000 -DZ BKN031 07/06 Q1012 TEMPO RA
  • 222020Z 13008KT 9999 -RA BKN031 08/06 Q1012 TEMPO RA
  • 221950Z 12008KT 9000 BKN037 08/06 Q1011 NOSIG
  • 221920Z 12009KT 9000 FEW020 SCT035 07/06 Q1011 NOSIG
  • 221850Z 13009KT 9000 BKN033 08/06 Q1010 NOSIG

TAF TAF EGSH
Valide du 22 à 21h jusqu'au 23 à 00h UTC


221958Z 2221/2224 12008KT 9999 SCT035
TEMPO 2221/2224 7000 SHRA BKN014
ATIS : +44 1603 420 640
Pas de NOTAMs connus pour ce terrain.



MET'MAP, la Météo Aéronautique d'un coup d'oeil ! - Copyright ORBIFLY Décembre 2007 - Disclaimer

ORBIFLY MET'MAP TEAM :

Programmation & Développement : Alexandra Zaïnal
Conception & Développement : Baudouin d'Aumeries
Co-Programmation & Développement : Marc-Olivier Méhu
Soutien technique & logistique : Manuel Goepfert

Contact : metmap@orbifly.com




SOURCES & CREDITS :

   NOAA